createdAt,value
2018-11-25T00:00:50.525Z,4.89
2018-11-25T00:03:19.451Z,4.89
2018-11-25T00:05:47.204Z,4.89
2018-11-25T00:08:16.126Z,4.90
2018-11-25T00:10:44.449Z,4.92
2018-11-25T00:13:12.224Z,4.91
2018-11-25T00:15:41.140Z,4.89
2018-11-25T00:18:08.942Z,4.87
2018-11-25T00:20:37.858Z,4.88
2018-11-25T00:23:06.194Z,4.92
2018-11-25T00:25:34.769Z,4.95
2018-11-25T00:28:03.108Z,4.94
2018-11-25T00:30:30.954Z,4.94
2018-11-25T00:32:59.782Z,4.93
2018-11-25T00:35:29.061Z,4.87
2018-11-25T00:37:56.755Z,4.84
2018-11-25T00:40:24.523Z,4.76
2018-11-25T00:42:52.864Z,4.73
2018-11-25T00:45:21.785Z,4.75
2018-11-25T00:47:50.407Z,4.78
2018-11-25T00:50:18.729Z,4.80
2018-11-25T00:52:46.482Z,4.80
2018-11-25T00:55:15.389Z,4.83
2018-11-25T00:57:43.154Z,4.87
2018-11-25T01:00:11.481Z,4.90
2018-11-25T01:02:40.396Z,4.92
2018-11-25T01:05:08.297Z,4.92
2018-11-25T01:07:36.473Z,4.91
2018-11-25T01:10:05.393Z,4.88
2018-11-25T01:12:33.735Z,4.85
2018-11-25T01:15:02.698Z,4.80
2018-11-25T01:17:31.406Z,4.77
2018-11-25T01:19:59.562Z,4.74
2018-11-25T01:22:28.472Z,4.69
2018-11-25T01:24:56.798Z,4.64
2018-11-25T01:27:25.126Z,4.57
2018-11-25T01:29:52.877Z,4.55
2018-11-25T01:32:21.193Z,4.53
2018-11-25T01:34:50.109Z,4.51
2018-11-25T01:37:18.451Z,4.49
2018-11-25T01:39:46.189Z,4.43
2018-11-25T01:42:15.112Z,4.32
2018-11-25T01:44:43.439Z,4.29
2018-11-25T01:47:11.785Z,4.31
2018-11-25T01:49:40.125Z,4.33
2018-11-25T01:52:08.458Z,4.33
2018-11-25T01:54:36.210Z,4.29
2018-11-25T01:57:04.530Z,4.20
2018-11-25T01:59:32.862Z,4.11
2018-11-25T02:02:01.772Z,3.97
2018-11-25T02:04:29.518Z,3.88
2018-11-25T02:06:58.430Z,3.84
2018-11-25T02:09:26.185Z,3.86
2018-11-25T02:11:54.508Z,3.92
2018-11-25T02:14:22.833Z,3.98
2018-11-25T02:16:51.790Z,4.01
2018-11-25T02:19:19.538Z,3.97
2018-11-25T02:21:47.881Z,3.90
2018-11-25T02:24:16.786Z,3.81
2018-11-25T02:26:44.541Z,3.73
2018-11-25T02:29:13.451Z,3.70
2018-11-25T02:31:41.195Z,3.74
2018-11-25T02:34:10.105Z,3.77
2018-11-25T02:36:38.440Z,3.78
2018-11-25T02:39:06.190Z,3.79
2018-11-25T02:41:35.099Z,3.79
2018-11-25T02:44:02.849Z,3.72
2018-11-25T02:46:31.760Z,3.70
2018-11-25T02:48:59.512Z,3.70
2018-11-25T02:51:28.416Z,3.73
2018-11-25T02:53:56.177Z,3.79
2018-11-25T02:56:25.084Z,3.79
2018-11-25T02:58:53.407Z,3.74
2018-11-25T03:01:21.738Z,3.68
2018-11-25T03:03:49.488Z,3.64
2018-11-25T03:06:17.845Z,3.60
2018-11-25T03:08:46.175Z,3.50
2018-11-25T03:11:14.543Z,3.45
2018-11-25T03:13:42.825Z,3.40
2018-11-25T03:16:11.740Z,3.33
2018-11-25T03:18:40.102Z,3.31
2018-11-25T03:21:08.431Z,3.32
2018-11-25T03:23:36.752Z,3.33
2018-11-25T03:26:04.496Z,3.31
2018-11-25T03:28:32.832Z,3.25
2018-11-25T03:31:01.742Z,3.20
2018-11-25T03:33:29.489Z,3.18
2018-11-25T03:35:57.817Z,3.17
2018-11-25T03:38:26.160Z,3.14
2018-11-25T03:40:55.070Z,3.08
2018-11-25T03:43:23.410Z,3.06
2018-11-25T03:45:51.158Z,3.09
2018-11-25T03:48:19.487Z,3.15
2018-11-25T03:50:48.403Z,3.20
2018-11-25T03:53:16.153Z,3.24
2018-11-25T03:55:44.476Z,3.27
2018-11-25T03:58:13.382Z,3.27
2018-11-25T04:00:41.709Z,3.27
2018-11-25T04:03:09.454Z,3.24
2018-11-25T04:05:37.782Z,3.15
2018-11-25T04:08:06.688Z,2.99
2018-11-25T04:10:34.488Z,2.89
2018-11-25T04:13:03.352Z,2.76
2018-11-25T04:15:31.686Z,2.78
2018-11-25T04:17:59.418Z,2.86
2018-11-25T04:20:28.339Z,2.92
2018-11-25T04:22:56.090Z,2.95
2018-11-25T04:25:24.996Z,2.99
2018-11-25T04:27:52.746Z,2.98
2018-11-25T04:30:21.659Z,2.91
2018-11-25T04:32:49.406Z,2.83
2018-11-25T04:35:17.732Z,2.83
2018-11-25T04:37:46.056Z,2.86
2018-11-25T04:40:14.383Z,2.87
2018-11-25T04:42:43.282Z,2.89
2018-11-25T04:45:11.091Z,2.87
2018-11-25T04:47:39.352Z,2.87
2018-11-25T04:50:08.255Z,2.87
2018-11-25T04:52:36.587Z,2.89
2018-11-25T04:55:04.330Z,2.92
2018-11-25T04:57:33.226Z,2.96
2018-11-25T05:00:01.560Z,3.01
2018-11-25T05:02:29.880Z,3.04
2018-11-25T05:04:58.211Z,3.07
2018-11-25T05:07:25.951Z,3.08
2018-11-25T05:09:54.276Z,3.11
2018-11-25T05:12:22.604Z,3.17
2018-11-25T05:14:51.510Z,3.22
2018-11-25T05:17:19.238Z,3.30
2018-11-25T05:19:48.143Z,3.36
2018-11-25T05:22:16.491Z,3.35
2018-11-25T05:24:44.233Z,3.30
2018-11-25T05:27:13.137Z,3.29
2018-11-25T05:29:41.459Z,3.25
2018-11-25T05:32:09.785Z,3.26
2018-11-25T05:34:38.108Z,3.31
2018-11-25T05:37:06.430Z,3.37
2018-11-25T05:39:34.755Z,3.41
2018-11-25T05:42:03.079Z,3.46
2018-11-25T05:44:31.402Z,3.46
2018-11-25T05:46:59.727Z,3.48
2018-11-25T05:49:27.472Z,3.50
2018-11-25T05:51:55.794Z,3.52
2018-11-25T05:54:24.131Z,3.56
2018-11-25T05:56:53.369Z,3.60
2018-11-25T05:59:22.470Z,3.64
2018-11-25T06:01:50.206Z,3.67
2018-11-25T06:04:19.122Z,3.68
2018-11-25T06:06:46.870Z,3.70
2018-11-25T06:09:15.774Z,3.69
2018-11-25T06:11:44.102Z,3.67
2018-11-25T06:14:11.857Z,3.66
2018-11-25T06:16:40.755Z,3.65
2018-11-25T06:19:09.079Z,3.63
2018-11-25T06:21:37.622Z,3.63
2018-11-25T06:24:05.391Z,3.63
2018-11-25T06:26:34.560Z,3.57
2018-11-25T06:29:02.305Z,3.57
2018-11-25T06:31:31.206Z,3.62
2018-11-25T06:33:58.956Z,3.66
2018-11-25T06:36:27.273Z,3.69
2018-11-25T06:38:55.591Z,3.73
2018-11-25T06:41:23.922Z,3.76
2018-11-25T06:43:53.387Z,3.76
2018-11-25T06:46:21.491Z,3.75
2018-11-25T06:48:54.765Z,3.76
2018-11-25T06:51:17.564Z,3.74
2018-11-25T06:53:46.185Z,3.70
2018-11-25T06:56:14.225Z,3.60
2018-11-25T06:58:42.550Z,3.55
2018-11-25T07:01:11.467Z,3.53
2018-11-25T07:03:39.216Z,3.56
2018-11-25T07:06:07.541Z,3.63
2018-11-25T07:08:36.442Z,3.70
2018-11-25T07:11:05.099Z,3.76
2018-11-25T07:13:33.422Z,3.79
2018-11-25T07:16:01.172Z,3.79
2018-11-25T07:18:29.502Z,3.75
2018-11-25T07:20:58.714Z,3.66
2018-11-25T07:23:27.313Z,3.54
2018-11-25T07:25:55.080Z,3.46
2018-11-25T07:28:23.982Z,3.40
2018-11-25T07:30:51.728Z,3.43
2018-11-25T07:33:20.049Z,3.52
2018-11-25T07:35:48.376Z,3.62
2018-11-25T07:38:16.737Z,3.67
2018-11-25T07:40:45.053Z,3.66
2018-11-25T07:43:13.381Z,3.62
2018-11-25T07:45:41.715Z,3.54
2018-11-25T07:48:10.043Z,3.52
2018-11-25T07:50:38.951Z,3.50
2018-11-25T07:53:07.469Z,3.53
2018-11-25T07:55:35.610Z,3.63
2018-11-25T07:58:04.529Z,3.73
2018-11-25T08:00:32.283Z,3.81
2018-11-25T08:03:00.620Z,3.85
2018-11-25T08:05:30.121Z,3.86
2018-11-25T08:07:58.449Z,3.84
2018-11-25T08:10:26.786Z,3.88
2018-11-25T08:12:56.426Z,3.90
2018-11-25T08:15:23.458Z,3.94
2018-11-25T08:17:52.369Z,4.00
2018-11-25T08:20:20.117Z,4.06
2018-11-25T08:22:49.033Z,4.09
2018-11-25T08:25:16.790Z,4.14
2018-11-25T08:27:45.740Z,4.16
2018-11-25T08:30:15.054Z,4.21
2018-11-25T08:32:42.627Z,4.29
2018-11-25T08:35:10.976Z,4.35
2018-11-25T08:37:38.721Z,4.39
2018-11-25T08:40:07.052Z,4.44
2018-11-25T08:42:36.338Z,4.48
2018-11-25T08:45:05.244Z,4.54
2018-11-25T08:47:33.002Z,4.61
2018-11-25T08:50:01.331Z,4.68
2018-11-25T08:52:29.682Z,4.71
2018-11-25T08:54:58.607Z,4.76
2018-11-25T08:57:27.107Z,4.81
2018-11-25T08:59:55.440Z,4.87
2018-11-25T09:02:23.189Z,4.94
2018-11-25T09:04:51.517Z,5.00
2018-11-25T09:07:19.914Z,5.04
2018-11-25T09:09:48.271Z,5.11
2018-11-25T09:12:17.191Z,5.19
2018-11-25T09:14:45.541Z,5.27
2018-11-25T09:17:13.298Z,5.34
2018-11-25T09:19:42.230Z,5.42
2018-11-25T09:22:09.983Z,5.50
2018-11-25T09:24:38.942Z,5.58
2018-11-25T09:27:06.702Z,5.64
2018-11-25T09:29:36.127Z,5.69
2018-11-25T09:32:04.843Z,5.74
2018-11-25T09:34:33.478Z,5.77
2018-11-25T09:37:01.005Z,5.79
2018-11-25T09:39:29.462Z,5.83
2018-11-25T09:41:58.684Z,5.87
2018-11-25T09:44:27.073Z,5.91
2018-11-25T09:46:54.832Z,5.95
2018-11-25T09:49:23.749Z,5.94
2018-11-25T09:51:52.091Z,5.96
2018-11-25T09:54:19.846Z,6.00
2018-11-25T09:56:48.770Z,6.02
2018-11-25T09:59:17.105Z,6.04
2018-11-25T10:01:45.442Z,6.06
2018-11-25T10:04:13.802Z,6.06
2018-11-25T10:06:42.464Z,6.07
2018-11-25T10:09:10.237Z,6.07
2018-11-25T10:11:39.274Z,6.07
2018-11-25T10:14:07.608Z,6.08
2018-11-25T10:16:35.794Z,6.07
2018-11-25T10:19:04.133Z,6.10
2018-11-25T10:21:33.043Z,6.13
2018-11-25T10:24:01.800Z,6.16
2018-11-25T10:26:30.140Z,6.17
2018-11-25T10:28:57.906Z,6.19
2018-11-25T10:31:26.451Z,6.21
2018-11-25T10:33:55.363Z,6.24
2018-11-25T10:36:23.692Z,6.28
2018-11-25T10:38:52.023Z,6.34
2018-11-25T10:41:20.407Z,6.40
2018-11-25T10:43:48.202Z,6.44
2018-11-25T10:46:17.160Z,6.51
2018-11-25T10:48:45.505Z,6.58
2018-11-25T10:51:14.301Z,6.64
2018-11-25T10:53:42.692Z,6.71
2018-11-25T10:56:11.068Z,6.80
2018-11-25T10:58:39.655Z,6.89
2018-11-25T11:01:08.422Z,6.96
2018-11-25T11:03:36.826Z,7.03
2018-11-25T11:06:04.698Z,7.08
2018-11-25T11:08:33.803Z,7.14
2018-11-25T11:11:02.251Z,7.19
2018-11-25T11:13:31.041Z,7.24
2018-11-25T11:15:59.823Z,7.25
2018-11-25T11:18:28.241Z,7.28
2018-11-25T11:20:56.679Z,7.31
2018-11-25T11:23:25.392Z,7.33
2018-11-25T11:25:53.711Z,7.37
2018-11-25T11:28:22.068Z,7.40
2018-11-25T11:30:50.404Z,7.48
2018-11-25T11:33:18.964Z,7.56
2018-11-25T11:35:47.292Z,7.64
2018-11-25T11:38:15.629Z,7.72
2018-11-25T11:40:43.950Z,7.82
2018-11-25T11:43:11.693Z,7.85
2018-11-25T11:45:40.029Z,7.82
2018-11-25T11:48:08.433Z,7.78
2018-11-25T11:50:37.341Z,7.69
2018-11-25T11:53:05.799Z,7.67
2018-11-25T11:55:34.170Z,7.68
2018-11-25T11:58:02.776Z,7.70
2018-11-25T12:00:30.293Z,7.71
2018-11-25T12:02:59.230Z,7.71
2018-11-25T12:05:28.757Z,7.70
2018-11-25T12:07:57.205Z,7.71
2018-11-25T12:10:26.438Z,7.70
2018-11-25T12:12:54.664Z,7.72
2018-11-25T12:15:29.967Z,7.72
2018-11-25T12:17:52.968Z,7.76
2018-11-25T12:20:21.670Z,7.74
2018-11-25T12:22:50.706Z,7.65
2018-11-25T12:25:18.527Z,7.59
2018-11-25T12:27:47.430Z,7.59
2018-11-25T12:30:16.034Z,7.60
2018-11-25T12:32:44.366Z,7.67
2018-11-25T12:35:12.134Z,7.72
2018-11-25T12:37:41.091Z,7.74
2018-11-25T12:40:08.901Z,7.65
2018-11-25T12:42:37.953Z,7.55
2018-11-25T12:45:06.699Z,7.44
2018-11-25T12:47:35.182Z,7.38
2018-11-25T12:50:03.531Z,7.37
2018-11-25T12:52:31.932Z,7.34
2018-11-25T12:55:00.341Z,7.32
2018-11-25T12:57:28.383Z,7.30
2018-11-25T12:59:56.448Z,7.33
2018-11-25T13:02:25.559Z,7.38
2018-11-25T13:04:53.914Z,7.40
2018-11-25T13:07:22.238Z,7.43
2018-11-25T13:09:50.597Z,7.41
2018-11-25T13:12:18.361Z,7.42
2018-11-25T13:14:47.270Z,7.35
2018-11-25T13:17:16.387Z,7.29
2018-11-25T13:19:44.950Z,7.29
2018-11-25T13:22:13.497Z,7.27
2018-11-25T13:24:41.737Z,7.26
2018-11-25T13:27:10.176Z,7.25
2018-11-25T13:29:38.531Z,7.27
2018-11-25T13:32:06.978Z,7.27
2018-11-25T13:34:35.319Z,7.27
2018-11-25T13:40:02.389Z,7.26
2018-11-25T13:42:30.810Z,7.27
2018-11-25T13:44:58.659Z,7.25
2018-11-25T13:47:26.993Z,7.19
2018-11-25T13:49:55.316Z,7.16
2018-11-25T13:52:23.954Z,7.17
2018-11-25T13:54:52.340Z,7.18
2018-11-25T13:57:20.774Z,7.17
2018-11-25T13:59:48.552Z,7.14
2018-11-25T14:02:17.574Z,7.10
2018-11-25T14:04:46.452Z,7.09
2018-11-25T14:07:14.804Z,7.07
2018-11-25T14:09:43.243Z,7.04
2018-11-25T14:12:10.990Z,7.04
2018-11-25T14:14:40.347Z,7.02
2018-11-25T14:17:08.667Z,7.02
2018-11-25T14:19:37.020Z,6.92
2018-11-25T14:22:05.577Z,6.75
2018-11-25T14:24:33.942Z,6.65
2018-11-25T14:27:02.333Z,6.60
2018-11-25T14:29:30.671Z,6.57
2018-11-25T14:31:59.228Z,6.56
2018-11-25T14:34:27.603Z,6.57
2018-11-25T14:36:55.390Z,6.57
2018-11-25T14:39:23.727Z,6.60
2018-11-25T14:41:52.625Z,6.63
2018-11-25T14:44:20.510Z,6.65
2018-11-25T14:46:50.357Z,6.68
2018-11-25T14:49:18.100Z,6.67
2018-11-25T14:51:47.010Z,6.66
2018-11-25T14:54:15.467Z,6.63
2018-11-25T14:56:44.279Z,6.62
2018-11-25T14:59:13.000Z,6.60
2018-11-25T15:01:41.332Z,6.54
2018-11-25T15:04:09.982Z,6.52
2018-11-25T15:06:38.443Z,6.49
2018-11-25T15:09:06.834Z,6.46
2018-11-25T15:11:35.524Z,6.42
2018-11-25T15:14:03.851Z,6.31
2018-11-25T15:16:32.178Z,6.22
2018-11-25T15:19:00.655Z,6.18
2018-11-25T15:21:29.486Z,6.16
2018-11-25T15:23:57.264Z,6.15
2018-11-25T15:26:26.292Z,6.16
2018-11-25T15:28:54.718Z,6.17
2018-11-25T15:31:23.117Z,6.22
2018-11-25T15:33:51.777Z,6.26
2018-11-25T15:36:20.113Z,6.31
2018-11-25T15:38:47.882Z,6.34
2018-11-25T15:41:17.494Z,6.34
2018-11-25T15:43:45.881Z,6.33
2018-11-25T15:46:15.218Z,6.32
2018-11-25T15:48:43.583Z,6.30
2018-11-25T15:51:11.110Z,6.22
2018-11-25T15:53:40.064Z,6.10
2018-11-25T15:56:08.402Z,6.06
2018-11-25T15:58:36.757Z,6.02
2018-11-25T16:01:05.383Z,6.05
2018-11-25T16:03:33.754Z,6.10
2018-11-25T16:06:02.069Z,6.16
2018-11-25T16:08:37.689Z,6.20
2018-11-25T16:10:58.797Z,6.23
2018-11-25T16:13:26.547Z,6.24
2018-11-25T16:15:55.829Z,6.25
2018-11-25T16:18:24.250Z,6.25
2018-11-25T16:20:52.552Z,6.19
2018-11-25T16:23:20.890Z,6.17
2018-11-25T16:25:49.367Z,6.17
2018-11-25T16:28:17.925Z,6.20
2018-11-25T16:30:46.260Z,6.21
2018-11-25T16:33:14.616Z,6.12
2018-11-25T16:35:42.959Z,6.07
2018-11-25T16:38:10.738Z,6.05
2018-11-25T16:40:39.984Z,6.05
2018-11-25T16:43:08.593Z,6.08
2018-11-25T16:45:36.970Z,6.10
2018-11-25T16:48:05.290Z,6.13
2018-11-25T16:50:33.918Z,6.16
2018-11-25T16:53:01.666Z,6.17
2018-11-25T16:55:30.015Z,6.18
2018-11-25T16:57:59.048Z,6.18
2018-11-25T17:00:27.484Z,6.17
2018-11-25T17:02:55.905Z,6.15
2018-11-25T17:05:23.700Z,6.16
2018-11-25T17:07:52.049Z,6.16
2018-11-25T17:10:21.007Z,6.19
2018-11-25T17:12:48.779Z,6.17
2018-11-25T17:15:17.706Z,6.09
2018-11-25T17:17:46.403Z,5.99
2018-11-25T17:20:14.150Z,5.94
2018-11-25T17:22:43.057Z,5.94
2018-11-25T17:25:11.943Z,5.94
2018-11-25T17:27:39.764Z,5.95
2018-11-25T17:30:08.059Z,5.96
2018-11-25T17:32:36.411Z,6.00
2018-11-25T17:35:04.772Z,6.07
2018-11-25T17:37:33.133Z,6.12
2018-11-25T17:40:01.568Z,6.16
2018-11-25T17:42:29.914Z,6.20
2018-11-25T17:44:59.256Z,6.25
2018-11-25T17:47:27.911Z,6.28
2018-11-25T17:49:56.612Z,6.30
2018-11-25T17:52:24.953Z,6.26
2018-11-25T17:54:52.713Z,6.25
2018-11-25T17:57:21.631Z,6.26
2018-11-25T17:59:50.012Z,6.25
2018-11-25T18:02:18.296Z,6.26
2018-11-25T18:04:46.041Z,6.28
2018-11-25T18:07:14.437Z,6.30
2018-11-25T18:09:42.770Z,6.31
2018-11-25T18:12:11.727Z,6.27
2018-11-25T18:14:40.260Z,6.25
2018-11-25T18:17:08.210Z,6.22
2018-11-25T18:19:37.158Z,6.23
2018-11-25T18:22:05.738Z,6.26
2018-11-25T18:24:34.005Z,6.27
2018-11-25T18:27:02.471Z,6.24
2018-11-25T18:29:31.057Z,6.22
2018-11-25T18:31:58.856Z,6.27
2018-11-25T18:34:27.812Z,6.38
2018-11-25T18:36:56.268Z,6.41
2018-11-25T18:39:24.644Z,6.34
2018-11-25T18:41:53.282Z,6.26
2018-11-25T18:44:21.326Z,6.25
2018-11-25T18:46:49.656Z,6.24
2018-11-25T18:49:18.051Z,6.24
2018-11-25T18:51:46.992Z,6.24
2018-11-25T18:54:15.326Z,6.25
2018-11-25T18:56:43.873Z,6.30
2018-11-25T18:59:12.652Z,6.32
2018-11-25T19:01:41.272Z,6.33
2018-11-25T19:04:10.549Z,6.36
2018-11-25T19:06:39.060Z,6.39
2018-11-25T19:09:07.484Z,6.39
2018-11-25T19:11:37.353Z,6.39
2018-11-25T19:14:05.095Z,6.40
2018-11-25T19:16:34.176Z,6.40
2018-11-25T19:19:02.468Z,6.40
2018-11-25T19:21:30.245Z,6.41
2018-11-25T19:23:59.120Z,6.42
2018-11-25T19:26:26.920Z,6.46
2018-11-25T19:28:55.788Z,6.48
2018-11-25T19:31:24.133Z,6.50
2018-11-25T19:33:52.498Z,6.53
2018-11-25T19:36:20.827Z,6.56
2018-11-25T19:38:48.577Z,6.59
2018-11-25T19:41:17.498Z,6.62
2018-11-25T19:43:46.759Z,6.63
2018-11-25T19:46:13.620Z,6.64
2018-11-25T19:48:41.965Z,6.67
2018-11-25T19:51:17.270Z,6.70
2018-11-25T19:53:38.766Z,6.72
2018-11-25T19:56:07.098Z,6.73
2018-11-25T19:58:36.010Z,6.76
2018-11-25T20:01:04.348Z,6.77
2018-11-25T20:03:32.737Z,6.78
2018-11-25T20:06:01.061Z,6.75
2018-11-25T20:08:29.390Z,6.74
2018-11-25T20:10:58.040Z,6.74
2018-11-25T20:13:26.103Z,6.72
2018-11-25T20:15:55.090Z,6.71
2018-11-25T20:18:23.388Z,6.72
2018-11-25T20:20:51.752Z,6.71
2018-11-25T20:23:20.335Z,6.72
2018-11-25T20:25:48.694Z,6.72
2018-11-25T20:28:17.626Z,6.72
2018-11-25T20:30:45.954Z,6.71
2018-11-25T20:33:15.550Z,6.71
2018-11-25T20:35:44.525Z,6.69
2018-11-25T20:38:12.204Z,6.70
2018-11-25T20:40:40.539Z,6.70
2018-11-25T20:43:08.292Z,6.71
2018-11-25T20:45:39.014Z,6.71
2018-11-25T20:48:05.861Z,6.71
2018-11-25T20:50:33.610Z,6.72
2018-11-25T20:53:07.416Z,6.74
2018-11-25T20:55:35.144Z,6.75
2018-11-25T20:58:03.199Z,6.74
2018-11-25T21:00:32.510Z,6.75
2018-11-25T21:03:00.252Z,6.74
2018-11-25T21:05:29.181Z,6.71
2018-11-25T21:07:57.587Z,6.70
2018-11-25T21:10:26.168Z,6.70
2018-11-25T21:12:53.706Z,6.71
2018-11-25T21:15:22.765Z,6.71
2018-11-25T21:17:51.861Z,6.70
2018-11-25T21:20:20.240Z,6.71
2018-11-25T21:22:49.268Z,6.71
2018-11-25T21:25:17.641Z,6.70
2018-11-25T21:27:46.496Z,6.70
2018-11-25T21:30:14.830Z,6.72
2018-11-25T21:32:43.993Z,6.71
2018-11-25T21:35:14.455Z,6.69
2018-11-25T21:37:42.976Z,6.69
2018-11-25T21:40:11.292Z,6.67
2018-11-25T21:42:39.673Z,6.67
2018-11-25T21:45:07.413Z,6.66
2018-11-25T21:47:36.324Z,6.65
2018-11-25T21:50:04.858Z,6.65
2018-11-25T21:52:32.587Z,6.67
2018-11-25T21:55:00.962Z,6.66
2018-11-25T21:57:29.875Z,6.66
2018-11-25T21:59:58.314Z,6.64
2018-11-25T22:02:26.053Z,6.63
2018-11-25T22:04:54.980Z,6.62
2018-11-25T22:07:23.324Z,6.64
2018-11-25T22:09:51.728Z,6.64
2018-11-25T22:12:20.531Z,6.64
2018-11-25T22:14:48.864Z,6.62
2018-11-25T22:17:17.355Z,6.61
2018-11-25T22:19:45.157Z,6.61
2018-11-25T22:22:14.056Z,6.60
2018-11-25T22:24:41.852Z,6.59
2018-11-25T22:27:10.776Z,6.56
2018-11-25T22:29:38.517Z,6.55
2018-11-25T22:32:07.422Z,6.54
2018-11-25T22:34:35.972Z,6.55
2018-11-25T22:37:04.311Z,6.52
2018-11-25T22:39:31.911Z,6.52
2018-11-25T22:42:00.765Z,6.52
2018-11-25T22:44:28.513Z,6.49
2018-11-25T22:46:56.817Z,6.47
2018-11-25T22:49:25.729Z,6.47
2018-11-25T22:51:54.447Z,6.46
2018-11-25T22:54:22.908Z,6.46
2018-11-25T22:56:50.718Z,6.43
2018-11-25T22:59:19.801Z,6.45
2018-11-25T23:01:47.549Z,6.47
2018-11-25T23:04:17.809Z,6.49
2018-11-25T23:06:50.302Z,6.51
2018-11-25T23:09:19.279Z,6.51
2018-11-25T23:11:47.561Z,6.50
2018-11-25T23:14:15.312Z,6.49
2018-11-25T23:16:44.239Z,6.48
2018-11-25T23:19:12.274Z,6.48
2018-11-25T23:21:41.263Z,6.50
2018-11-25T23:24:10.163Z,6.49
2018-11-25T23:26:38.489Z,6.49
2018-11-25T23:29:06.812Z,6.50
2018-11-25T23:31:34.584Z,6.51
2018-11-25T23:34:03.475Z,6.53
2018-11-25T23:36:32.026Z,6.54
2018-11-25T23:39:00.114Z,6.53
2018-11-25T23:41:28.443Z,6.53
2018-11-25T23:43:56.766Z,6.55
2018-11-25T23:46:25.099Z,6.53
2018-11-25T23:48:52.867Z,6.52
2018-11-25T23:51:21.268Z,6.50
2018-11-25T23:53:49.607Z,6.47
2018-11-25T23:56:18.290Z,6.42
2018-11-25T23:58:47.038Z,6.35
